createdAt,value
2018-03-01T00:00:06.744Z,0.00
2018-03-01T00:01:59.718Z,0.00
2018-03-01T00:02:59.647Z,0.00
2018-03-01T00:04:52.584Z,0.00
2018-03-01T00:05:52.519Z,0.00
2018-03-01T00:07:45.434Z,0.00
2018-03-01T00:08:45.428Z,0.00
2018-03-01T00:10:38.548Z,0.00
2018-03-01T00:11:38.459Z,0.00
2018-03-01T00:13:31.373Z,0.00
2018-03-01T00:14:31.332Z,0.00
2018-03-01T00:16:24.276Z,0.00
2018-03-01T00:17:24.209Z,0.00
2018-03-01T00:19:17.401Z,0.00
2018-03-01T00:20:17.268Z,0.00
2018-03-01T00:22:10.232Z,0.00
2018-03-01T00:23:10.157Z,0.00
2018-03-01T00:25:02.944Z,0.00
2018-03-01T00:26:02.898Z,0.00
2018-03-01T00:27:55.852Z,0.00
2018-03-01T00:28:55.768Z,0.00
2018-03-01T00:30:48.580Z,0.00
2018-03-01T00:31:48.510Z,0.00
2018-03-01T00:33:41.525Z,0.00
2018-03-01T00:34:41.472Z,0.00
2018-03-01T00:36:34.280Z,0.00
2018-03-01T00:37:34.205Z,0.00
2018-03-01T00:39:27.117Z,0.00
2018-03-01T00:40:27.070Z,0.00
2018-03-01T00:42:20.039Z,0.00
2018-03-01T00:43:19.938Z,0.00
2018-03-01T00:45:12.934Z,0.00
2018-03-01T00:46:12.826Z,0.00
2018-03-01T00:48:05.772Z,0.00
2018-03-01T00:49:05.698Z,0.00
2018-03-01T00:50:58.648Z,0.00
2018-03-01T00:51:58.572Z,0.00
2018-03-01T00:53:51.510Z,0.00
2018-03-01T00:54:51.448Z,0.00
2018-03-01T00:56:44.382Z,0.00
2018-03-01T00:57:44.298Z,0.00
2018-03-01T00:59:37.253Z,0.00
2018-03-01T01:00:37.179Z,0.00
2018-03-01T01:02:30.142Z,0.00
2018-03-01T01:03:30.115Z,0.00
2018-03-01T01:05:23.227Z,0.00
2018-03-01T01:06:23.142Z,0.00
2018-03-01T01:08:16.083Z,0.00
2018-03-01T01:09:16.017Z,0.00
2018-03-01T01:11:08.980Z,0.00
2018-03-01T01:12:08.928Z,0.00
2018-03-01T01:14:01.878Z,0.00
2018-03-01T01:15:01.799Z,0.00
2018-03-01T01:16:54.599Z,0.00
2018-03-01T01:17:54.542Z,0.00
2018-03-01T01:19:47.507Z,0.00
2018-03-01T01:20:47.429Z,0.00
2018-03-01T01:22:40.388Z,0.00
2018-03-01T01:23:40.342Z,0.00
2018-03-01T01:25:33.288Z,0.00
2018-03-01T01:26:33.223Z,0.00
2018-03-01T01:28:26.497Z,0.00
2018-03-01T01:29:26.402Z,0.00
2018-03-01T01:31:19.333Z,0.00
2018-03-01T01:32:19.290Z,0.00
2018-03-01T01:34:12.524Z,0.00
2018-03-01T01:35:12.351Z,0.00
2018-03-01T01:37:05.287Z,0.00
2018-03-01T01:38:05.240Z,0.00
2018-03-01T01:39:58.184Z,0.00
2018-03-01T01:40:58.244Z,0.00
2018-03-01T01:42:51.298Z,0.00
2018-03-01T01:43:51.220Z,0.00
2018-03-01T01:45:44.158Z,0.00
2018-03-01T01:46:44.093Z,0.00
2018-03-01T01:48:36.887Z,0.00
2018-03-01T01:49:36.829Z,0.00
2018-03-01T01:51:29.773Z,0.00
2018-03-01T01:52:29.721Z,0.00
2018-03-01T01:54:22.846Z,0.00
2018-03-01T01:55:22.774Z,0.00
2018-03-01T01:57:15.568Z,0.00
2018-03-01T01:58:15.502Z,0.00
2018-03-01T02:00:09.070Z,0.00
2018-03-01T02:01:08.384Z,0.00
2018-03-01T02:03:01.321Z,0.00
2018-03-01T02:04:01.272Z,0.00
2018-03-01T02:05:54.159Z,0.00
2018-03-01T02:06:54.097Z,0.00
2018-03-01T02:08:47.042Z,0.00
2018-03-01T02:09:46.989Z,0.00
2018-03-01T02:11:39.941Z,0.00
2018-03-01T02:12:39.871Z,0.00
2018-03-01T02:14:32.819Z,0.00
2018-03-01T02:15:32.769Z,0.00
2018-03-01T02:17:25.634Z,0.00
2018-03-01T02:18:25.569Z,0.00
2018-03-01T02:20:18.508Z,0.00
2018-03-01T02:21:18.459Z,0.00
2018-03-01T02:23:11.402Z,0.00
2018-03-01T02:24:11.334Z,0.00
2018-03-01T02:26:04.284Z,0.00
2018-03-01T02:27:04.214Z,0.00
2018-03-01T02:28:57.155Z,0.00
2018-03-01T02:29:57.097Z,0.00
2018-03-01T02:31:49.949Z,0.00
2018-03-01T02:32:49.833Z,0.00
2018-03-01T02:34:42.759Z,0.00
2018-03-01T02:35:42.710Z,0.00
2018-03-01T02:37:35.668Z,0.00
2018-03-01T02:38:35.684Z,0.00
2018-03-01T02:40:28.722Z,0.00
2018-03-01T02:41:28.668Z,0.00
2018-03-01T02:43:21.613Z,0.00
2018-03-01T02:44:21.557Z,0.00
2018-03-01T02:46:14.463Z,0.00
2018-03-01T02:47:14.420Z,0.00
2018-03-01T02:49:07.672Z,0.00
2018-03-01T02:50:07.494Z,0.00
2018-03-01T02:52:00.418Z,0.00
2018-03-01T02:53:00.360Z,0.00
2018-03-01T02:54:53.319Z,0.00
2018-03-01T02:55:53.260Z,0.00
2018-03-01T02:57:46.439Z,0.00
2018-03-01T02:58:46.333Z,0.00
2018-03-01T03:00:39.260Z,0.00
2018-03-01T03:01:39.193Z,0.00
2018-03-01T03:03:32.149Z,0.00
2018-03-01T03:04:32.089Z,0.00
2018-03-01T03:06:24.998Z,0.00
2018-03-01T03:07:24.959Z,0.00
2018-03-01T03:09:17.858Z,0.00
2018-03-01T03:10:17.775Z,0.00
2018-03-01T03:12:10.709Z,0.00
2018-03-01T03:13:10.661Z,0.00
2018-03-01T03:15:03.461Z,0.00
2018-03-01T03:16:03.393Z,0.00
2018-03-01T03:17:56.324Z,0.00
2018-03-01T03:18:56.273Z,0.00
2018-03-01T03:20:49.544Z,0.00
2018-03-01T03:21:49.380Z,0.00
2018-03-01T03:23:42.304Z,0.00
2018-03-01T03:24:42.263Z,0.00
2018-03-01T03:26:35.078Z,0.00
2018-03-01T03:27:35.013Z,0.00
2018-03-01T03:29:27.949Z,0.00
2018-03-01T03:30:27.890Z,0.00
2018-03-01T03:32:20.734Z,0.00
2018-03-01T03:33:20.689Z,0.00
2018-03-01T03:35:13.645Z,0.00
2018-03-01T03:36:13.429Z,0.00
2018-03-01T03:38:06.359Z,0.00
2018-03-01T03:39:06.310Z,0.00
2018-03-01T03:40:59.251Z,0.00
2018-03-01T03:41:59.186Z,0.00
2018-03-01T03:43:52.288Z,0.00
2018-03-01T03:44:52.228Z,0.00
2018-03-01T03:46:45.183Z,0.00
2018-03-01T03:47:45.120Z,0.00
2018-03-01T03:49:38.036Z,0.00
2018-03-01T03:50:38.011Z,0.00
2018-03-01T03:52:30.944Z,0.00
2018-03-01T03:53:30.874Z,0.00
2018-03-01T03:55:23.671Z,0.00
2018-03-01T03:56:23.604Z,0.00
2018-03-01T03:58:16.598Z,0.00
2018-03-01T03:59:16.505Z,0.00
2018-03-01T04:01:09.460Z,0.00
2018-03-01T04:02:09.410Z,0.00
2018-03-01T04:04:02.200Z,0.00
2018-03-01T04:05:02.160Z,0.00
2018-03-01T04:06:55.440Z,0.00
2018-03-01T04:07:55.254Z,0.00
2018-03-01T04:09:48.168Z,0.00
2018-03-01T04:10:48.111Z,0.00
2018-03-01T04:12:41.075Z,0.00
2018-03-01T04:13:41.119Z,0.00
2018-03-01T04:15:33.972Z,0.00
2018-03-01T04:16:34.271Z,0.00
2018-03-01T04:18:26.699Z,0.00
2018-03-01T04:19:26.649Z,0.00
2018-03-01T04:21:19.576Z,0.00
2018-03-01T04:22:19.510Z,0.00
2018-03-01T04:24:12.425Z,0.00
2018-03-01T04:25:12.377Z,0.00
2018-03-01T04:27:05.324Z,0.00
2018-03-01T04:28:05.259Z,0.00
2018-03-01T04:29:58.395Z,0.00
2018-03-01T04:30:58.336Z,0.00
2018-03-01T04:32:51.290Z,0.00
2018-03-01T04:33:51.234Z,0.00
2018-03-01T04:35:44.166Z,0.00
2018-03-01T04:36:44.131Z,0.00
2018-03-01T04:38:37.226Z,0.00
2018-03-01T04:39:37.135Z,0.00
2018-03-01T04:41:29.930Z,0.00
2018-03-01T04:42:29.868Z,0.00
2018-03-01T04:44:22.837Z,0.00
2018-03-01T04:45:22.759Z,0.00
2018-03-01T04:47:15.544Z,0.00
2018-03-01T04:48:15.501Z,0.00
2018-03-01T04:50:08.661Z,0.00
2018-03-01T04:51:08.564Z,0.00
2018-03-01T04:53:01.519Z,0.00
2018-03-01T04:54:01.469Z,0.00
2018-03-01T04:55:55.385Z,0.00
2018-03-01T04:56:55.391Z,0.00
2018-03-01T04:58:48.599Z,0.00
2018-03-01T04:59:48.405Z,0.00
2018-03-01T05:01:41.319Z,0.00
2018-03-01T05:02:41.284Z,0.00
2018-03-01T05:04:34.227Z,0.00
2018-03-01T05:05:34.244Z,0.00
2018-03-01T05:34:53.368Z,0.00
2018-03-01T05:35:53.311Z,0.00
2018-03-01T05:37:46.186Z,0.00
2018-03-01T05:38:46.130Z,0.00
2018-03-01T05:40:39.102Z,0.00
2018-03-01T05:41:39.010Z,0.00
2018-03-01T05:43:31.792Z,0.00
2018-03-01T05:44:31.751Z,0.00
2018-03-01T05:46:24.710Z,0.00
2018-03-01T05:47:24.703Z,0.00
2018-03-01T05:49:17.828Z,0.00
2018-03-01T05:50:17.707Z,0.00
2018-03-01T05:52:10.669Z,0.00
2018-03-01T05:53:10.618Z,0.00
2018-03-01T05:55:03.622Z,0.00
2018-03-01T05:56:03.484Z,0.00
2018-03-01T05:57:56.731Z,0.00
2018-03-01T05:58:56.580Z,0.00
2018-03-01T06:00:49.471Z,0.00
2018-03-01T06:01:49.421Z,0.00
2018-03-01T06:03:42.367Z,0.00
2018-03-01T06:04:42.380Z,0.00
2018-03-01T06:06:35.089Z,0.00
2018-03-01T06:07:35.049Z,0.00
2018-03-01T06:09:27.902Z,0.00
2018-03-01T06:10:27.796Z,0.00
2018-03-01T06:12:20.646Z,0.00
2018-03-01T06:13:20.586Z,0.00
2018-03-01T06:15:13.536Z,0.00
2018-03-01T06:16:13.481Z,0.00
2018-03-01T06:18:06.397Z,0.00
2018-03-01T06:19:06.350Z,0.00
2018-03-01T06:20:59.304Z,0.00
2018-03-01T06:21:59.227Z,0.00
2018-03-01T06:23:52.295Z,0.00
2018-03-01T06:24:52.164Z,0.00
2018-03-01T06:26:45.103Z,0.00
2018-03-01T06:27:45.047Z,0.00
2018-03-01T06:29:38.062Z,0.00
2018-03-01T06:30:37.977Z,0.00
2018-03-01T06:32:31.172Z,0.00
2018-03-01T06:33:31.058Z,0.00
2018-03-01T06:35:23.977Z,0.00
2018-03-01T06:36:23.927Z,0.00
2018-03-01T06:38:16.891Z,0.00
2018-03-01T06:39:16.812Z,0.00
2018-03-01T06:41:09.765Z,0.00
2018-03-01T06:42:09.717Z,0.00
2018-03-01T06:44:02.705Z,5.63
2018-03-01T06:45:02.636Z,5.63
2018-03-01T06:46:55.602Z,5.63
2018-03-01T06:47:55.516Z,5.63
2018-03-01T06:49:48.505Z,5.63
2018-03-01T06:50:48.432Z,5.63
2018-03-01T06:52:41.378Z,5.63
2018-03-01T06:53:41.278Z,5.63
2018-03-01T06:55:34.261Z,5.63
2018-03-01T06:56:34.155Z,5.63
2018-03-01T06:58:27.085Z,5.63
2018-03-01T06:59:27.162Z,11.25
2018-03-01T07:01:19.997Z,11.25
2018-03-01T07:02:19.911Z,11.25
2018-03-01T07:04:13.006Z,11.25
2018-03-01T07:05:12.965Z,11.25
2018-03-01T07:07:05.941Z,11.25
2018-03-01T07:08:05.861Z,11.25
2018-03-01T07:09:58.830Z,11.25
2018-03-01T07:10:58.755Z,11.25
2018-03-01T07:12:51.821Z,11.25
2018-03-01T07:13:51.667Z,11.25
2018-03-01T07:15:44.665Z,11.25
2018-03-01T07:16:44.591Z,16.88
2018-03-01T07:18:37.565Z,16.88
2018-03-01T07:19:37.472Z,16.88
2018-03-01T07:21:30.710Z,22.50
2018-03-01T07:22:30.602Z,22.50
2018-03-01T07:24:23.544Z,22.50
2018-03-01T07:25:23.497Z,22.50
2018-03-01T07:27:16.513Z,22.50
2018-03-01T07:28:16.437Z,22.50
2018-03-01T07:30:09.572Z,22.50
2018-03-01T07:31:09.466Z,22.50
2018-03-01T07:33:02.479Z,22.50
2018-03-01T07:34:02.438Z,22.50
2018-03-01T07:35:56.024Z,28.13
2018-03-01T07:36:55.287Z,28.13
2018-03-01T07:38:48.128Z,28.13
2018-03-01T07:39:48.071Z,33.75
2018-03-01T07:41:41.033Z,33.75
2018-03-01T07:42:40.951Z,33.75
2018-03-01T07:44:33.898Z,33.75
2018-03-01T07:45:33.873Z,33.75
2018-03-01T07:47:26.828Z,33.75
2018-03-01T07:48:26.757Z,33.75
2018-03-01T07:50:19.614Z,39.38
2018-03-01T07:51:19.571Z,39.38
2018-03-01T07:53:12.587Z,39.38
2018-03-01T07:54:12.512Z,33.75
2018-03-01T07:56:05.448Z,39.38
2018-03-01T07:57:05.401Z,39.38
2018-03-01T07:58:58.357Z,45.00
2018-03-01T07:59:58.298Z,45.00
2018-03-01T08:01:51.111Z,50.63
2018-03-01T08:02:51.026Z,50.63
2018-03-01T08:04:43.956Z,56.25
2018-03-01T08:05:43.906Z,61.88
2018-03-01T08:07:36.867Z,61.88
2018-03-01T08:08:36.813Z,61.88
2018-03-01T08:10:29.713Z,61.88
2018-03-01T08:11:29.703Z,61.88
2018-03-01T08:13:22.915Z,67.50
2018-03-01T08:14:22.763Z,67.50
2018-03-01T08:16:15.711Z,73.13
2018-03-01T08:17:15.646Z,73.13
2018-03-01T08:19:08.618Z,84.38
2018-03-01T08:20:08.548Z,84.38
2018-03-01T08:22:01.696Z,84.38
2018-03-01T08:23:01.623Z,84.38
2018-03-01T08:24:54.577Z,78.75
2018-03-01T08:25:54.505Z,84.38
2018-03-01T08:27:47.450Z,90.00
2018-03-01T08:28:47.388Z,90.00
2018-03-01T08:30:40.497Z,90.00
2018-03-01T08:31:40.437Z,90.00
2018-03-01T08:33:33.366Z,95.63
2018-03-01T08:34:33.317Z,90.00
2018-03-01T08:36:27.715Z,95.63
2018-03-01T08:37:26.231Z,95.63
2018-03-01T08:39:19.659Z,101.25
2018-03-01T08:40:19.272Z,101.25
2018-03-01T08:42:12.202Z,106.88
2018-03-01T08:43:12.163Z,112.50
2018-03-01T08:45:05.098Z,106.88
2018-03-01T08:46:05.098Z,101.25
2018-03-01T08:47:58.248Z,95.63
2018-03-01T08:48:58.120Z,95.63
2018-03-01T08:50:51.078Z,95.63
2018-03-01T08:51:51.008Z,95.63
2018-03-01T08:53:43.964Z,101.25
2018-03-01T08:54:43.923Z,106.88
2018-03-01T08:56:36.722Z,112.50
2018-03-01T08:57:36.672Z,112.50
2018-03-01T08:59:29.475Z,123.75
2018-03-01T09:00:29.412Z,129.38
2018-03-01T09:02:22.354Z,140.63
2018-03-01T09:03:22.306Z,135.00
2018-03-01T09:05:15.252Z,129.38
2018-03-01T09:06:15.191Z,129.38
2018-03-01T09:08:08.124Z,129.38
2018-03-01T09:09:08.114Z,135.00
2018-03-01T09:11:01.292Z,135.00
2018-03-01T09:12:01.163Z,135.00
2018-03-01T09:13:54.138Z,140.63
2018-03-01T09:14:54.038Z,135.00
2018-03-01T09:16:47.022Z,135.00
2018-03-01T09:17:46.983Z,140.63
2018-03-01T09:19:39.835Z,146.25
2018-03-01T09:20:39.793Z,151.88
2018-03-01T09:22:32.704Z,168.75
2018-03-01T09:23:32.557Z,174.38
2018-03-01T09:25:25.492Z,180.00
2018-03-01T09:26:25.450Z,185.63
2018-03-01T09:28:18.387Z,180.00
2018-03-01T09:29:18.353Z,185.63
2018-03-01T09:31:11.142Z,185.63
2018-03-01T09:32:11.098Z,180.00
2018-03-01T09:34:03.986Z,180.00
2018-03-01T09:35:03.954Z,180.00
2018-03-01T09:36:56.908Z,185.63
2018-03-01T09:37:56.841Z,185.63
2018-03-01T09:39:49.783Z,185.63
2018-03-01T09:40:49.733Z,191.25
2018-03-01T09:42:42.677Z,191.25
2018-03-01T09:43:42.618Z,196.88
2018-03-01T09:45:35.416Z,202.50
2018-03-01T09:46:35.384Z,202.50
2018-03-01T09:48:28.347Z,208.13
2018-03-01T09:49:28.294Z,208.13
2018-03-01T09:51:21.098Z,213.75
2018-03-01T09:52:21.042Z,219.38
2018-03-01T09:54:13.984Z,219.38
2018-03-01T09:55:13.942Z,225.00
2018-03-01T09:57:07.167Z,236.25
2018-03-01T09:58:07.017Z,253.13
2018-03-01T09:59:59.963Z,270.00
2018-03-01T10:00:59.908Z,382.50
2018-03-01T10:02:52.867Z,697.50
2018-03-01T10:03:52.879Z,438.75
2018-03-01T10:05:45.942Z,720.00
2018-03-01T10:06:45.793Z,528.75
2018-03-01T10:08:38.753Z,433.13
2018-03-01T10:09:38.689Z,393.75
2018-03-01T10:11:31.652Z,416.25
2018-03-01T10:12:31.658Z,551.25
2018-03-01T10:14:24.879Z,399.38
2018-03-01T10:15:24.677Z,360.00
2018-03-01T10:17:17.485Z,523.13
2018-03-01T10:18:17.443Z,506.25
2018-03-01T10:20:10.450Z,478.13
2018-03-01T10:21:10.391Z,624.38
2018-03-01T10:23:03.650Z,427.50
2018-03-01T10:24:03.445Z,573.75
2018-03-01T10:25:56.454Z,652.50
2018-03-01T10:26:56.364Z,450.00
2018-03-01T10:28:49.334Z,579.38
2018-03-01T10:29:49.295Z,427.50
2018-03-01T10:31:42.428Z,382.50
2018-03-01T10:32:42.408Z,478.13
2018-03-01T10:34:35.363Z,365.63
2018-03-01T10:35:35.305Z,556.88
2018-03-01T10:37:28.306Z,523.13
2018-03-01T10:38:28.273Z,635.63
2018-03-01T10:40:21.479Z,720.00
2018-03-01T10:41:21.349Z,742.50
2018-03-01T10:43:14.327Z,523.13
2018-03-01T10:44:14.294Z,590.63
2018-03-01T10:46:07.254Z,540.00
2018-03-01T10:47:07.212Z,495.00
2018-03-01T10:49:00.017Z,405.00
2018-03-01T10:49:59.978Z,489.38
2018-03-01T10:51:53.003Z,573.75
2018-03-01T10:52:52.990Z,416.25
2018-03-01T10:54:45.901Z,337.50
2018-03-01T10:55:45.884Z,652.50
2018-03-01T10:57:39.094Z,635.63
2018-03-01T10:58:39.007Z,624.38
2018-03-01T11:00:31.964Z,641.25
2018-03-01T11:01:31.912Z,646.88
2018-03-01T11:03:24.890Z,697.50
2018-03-01T11:04:24.849Z,703.13
2018-03-01T11:06:18.703Z,658.13
2018-03-01T11:07:18.628Z,675.00
2018-03-01T11:09:11.646Z,624.38
2018-03-01T11:10:11.616Z,601.88
2018-03-01T11:12:04.635Z,630.00
2018-03-01T11:13:04.627Z,624.38
2018-03-01T11:14:57.803Z,613.13
2018-03-01T11:15:57.679Z,635.63
2018-03-01T11:17:50.530Z,669.38
2018-03-01T11:18:50.472Z,652.50
2018-03-01T11:20:43.433Z,646.88
2018-03-01T11:21:43.472Z,641.25
2018-03-01T11:23:36.680Z,646.88
2018-03-01T11:24:36.543Z,669.38
2018-03-01T11:26:29.514Z,680.63
2018-03-01T11:27:29.482Z,697.50
2018-03-01T11:29:22.446Z,624.38
2018-03-01T11:30:22.400Z,635.63
2018-03-01T11:32:15.353Z,601.88
2018-03-01T11:33:15.283Z,607.50
2018-03-01T11:35:08.243Z,585.00
2018-03-01T11:36:08.213Z,579.38
2018-03-01T11:38:01.204Z,630.00
2018-03-01T11:39:01.139Z,624.38
2018-03-01T11:40:54.353Z,607.50
2018-03-01T11:41:54.307Z,585.00
2018-03-01T11:43:47.329Z,562.50
2018-03-01T11:44:47.223Z,568.13
2018-03-01T11:46:40.045Z,556.88
2018-03-01T11:47:40.018Z,528.75
2018-03-01T11:49:32.853Z,556.88
2018-03-01T11:50:32.807Z,579.38
2018-03-01T11:52:25.893Z,573.75
2018-03-01T11:53:25.840Z,562.50
2018-03-01T11:55:18.808Z,579.38
2018-03-01T11:56:18.748Z,618.75
2018-03-01T11:58:11.760Z,618.75
2018-03-01T11:59:11.678Z,601.88
2018-03-01T12:01:04.688Z,596.25
2018-03-01T12:02:04.527Z,607.50
2018-03-01T12:03:57.554Z,590.63
2018-03-01T12:04:57.439Z,596.25
2018-03-01T12:06:50.263Z,579.38
2018-03-01T12:07:50.236Z,579.38
2018-03-01T12:09:43.232Z,540.00
2018-03-01T12:10:43.174Z,540.00
2018-03-01T12:12:36.209Z,528.75
2018-03-01T12:13:36.159Z,483.75
2018-03-01T12:15:29.152Z,511.88
2018-03-01T12:16:29.084Z,517.50
2018-03-01T12:18:22.041Z,523.13
2018-03-01T12:19:22.021Z,523.13
2018-03-01T12:21:14.852Z,472.50
2018-03-01T12:22:14.820Z,461.25
2018-03-01T12:24:07.760Z,461.25
2018-03-01T12:25:07.731Z,461.25
2018-03-01T12:27:00.713Z,528.75
2018-03-01T12:28:00.675Z,528.75
2018-03-01T12:29:53.934Z,523.13
2018-03-01T12:30:53.776Z,528.75
2018-03-01T12:32:46.762Z,483.75
2018-03-01T12:33:46.709Z,478.13
2018-03-01T12:35:39.764Z,472.50
2018-03-01T12:36:39.660Z,450.00
2018-03-01T12:38:32.458Z,495.00
2018-03-01T12:39:32.432Z,528.75
2018-03-01T12:41:25.430Z,523.13
2018-03-01T12:42:25.370Z,517.50
2018-03-01T12:44:18.333Z,506.25
2018-03-01T12:45:18.301Z,517.50
2018-03-01T12:47:11.136Z,478.13
2018-03-01T12:48:11.083Z,489.38
2018-03-01T12:50:04.316Z,461.25
2018-03-01T12:51:04.234Z,433.13
2018-03-01T12:52:57.250Z,427.50
2018-03-01T12:53:57.176Z,399.38
2018-03-01T12:55:50.165Z,399.38
2018-03-01T12:56:50.091Z,382.50
2018-03-01T12:58:42.954Z,371.25
2018-03-01T12:59:42.918Z,393.75
2018-03-01T13:01:35.910Z,382.50
2018-03-01T13:02:35.862Z,399.38
2018-03-01T13:04:28.830Z,371.25
2018-03-01T13:05:28.803Z,360.00
2018-03-01T13:07:21.961Z,326.25
2018-03-01T13:08:21.884Z,303.75
2018-03-01T13:10:14.828Z,292.50
2018-03-01T13:11:14.794Z,331.88
2018-03-01T13:13:07.773Z,360.00
2018-03-01T13:14:07.715Z,331.88
2018-03-01T13:16:00.650Z,331.88
2018-03-01T13:17:00.608Z,326.25
2018-03-01T13:18:53.598Z,258.75
2018-03-01T13:19:53.541Z,264.38
2018-03-01T13:21:46.520Z,270.00
2018-03-01T13:22:46.503Z,236.25
2018-03-01T13:24:39.733Z,225.00
2018-03-01T13:25:39.534Z,230.63
2018-03-01T13:27:32.374Z,219.38
2018-03-01T13:28:32.324Z,219.38
2018-03-01T13:30:25.288Z,225.00
2018-03-01T13:31:25.389Z,230.63
2018-03-01T13:33:18.228Z,253.13
2018-03-01T13:34:18.149Z,258.75
2018-03-01T13:36:11.198Z,253.13
2018-03-01T13:37:11.125Z,225.00
2018-03-01T13:39:04.103Z,196.88
2018-03-01T13:40:04.050Z,202.50
2018-03-01T13:41:56.988Z,213.75
2018-03-01T13:42:56.955Z,208.13
2018-03-01T13:44:49.927Z,202.50
2018-03-01T13:45:49.780Z,208.13
2018-03-01T13:47:42.788Z,247.50
2018-03-01T13:48:42.750Z,247.50
2018-03-01T13:50:35.735Z,270.00
2018-03-01T13:51:35.698Z,286.88
2018-03-01T13:53:28.868Z,270.00
2018-03-01T13:54:28.786Z,247.50
2018-03-01T13:56:21.769Z,270.00
2018-03-01T13:57:21.732Z,281.25
2018-03-01T13:59:14.673Z,275.63
2018-03-01T14:00:14.634Z,281.25
2018-03-01T14:02:07.734Z,281.25
2018-03-01T14:03:07.704Z,286.88
2018-03-01T14:05:00.730Z,286.88
2018-03-01T14:06:00.658Z,275.63
2018-03-01T14:07:53.618Z,264.38
2018-03-01T14:08:53.567Z,253.13
2018-03-01T14:10:46.650Z,264.38
2018-03-01T14:11:46.603Z,258.75
2018-03-01T14:13:39.420Z,253.13
2018-03-01T14:14:39.356Z,241.88
2018-03-01T14:16:32.184Z,241.88
2018-03-01T14:17:32.169Z,241.88
2018-03-01T14:19:26.099Z,247.50
2018-03-01T14:20:26.060Z,253.13
2018-03-01T14:22:19.016Z,230.63
2018-03-01T14:23:18.867Z,219.38
2018-03-01T14:25:11.809Z,219.38
2018-03-01T14:26:11.758Z,202.50
2018-03-01T14:28:04.710Z,185.63
2018-03-01T14:29:04.696Z,185.63
2018-03-01T14:30:57.825Z,174.38
2018-03-01T14:31:57.736Z,168.75
2018-03-01T14:33:50.693Z,185.63
2018-03-01T14:34:50.678Z,185.63
2018-03-01T14:36:43.646Z,180.00
2018-03-01T14:37:43.628Z,191.25
2018-03-01T14:39:36.769Z,196.88
2018-03-01T14:40:36.691Z,196.88
2018-03-01T14:42:29.664Z,191.25
2018-03-01T14:43:29.584Z,196.88
2018-03-01T14:45:22.553Z,191.25
2018-03-01T14:46:22.514Z,180.00
2018-03-01T14:48:15.671Z,191.25
2018-03-01T14:49:15.594Z,191.25
2018-03-01T14:51:08.412Z,202.50
2018-03-01T14:52:08.362Z,202.50
2018-03-01T14:54:01.331Z,196.88
2018-03-01T14:55:01.274Z,196.88
2018-03-01T14:56:55.486Z,202.50
2018-03-01T14:57:55.384Z,196.88
2018-03-01T14:59:48.338Z,185.63
2018-03-01T15:00:48.283Z,180.00
2018-03-01T15:02:41.279Z,174.38
2018-03-01T15:03:41.183Z,174.38
2018-03-01T15:05:34.036Z,180.00
2018-03-01T15:06:34.005Z,180.00
2018-03-01T15:08:26.984Z,168.75
2018-03-01T15:09:26.934Z,163.13
2018-03-01T15:11:19.876Z,163.13
2018-03-01T15:12:19.845Z,163.13
2018-03-01T15:14:12.835Z,163.13
2018-03-01T15:15:12.765Z,168.75
2018-03-01T15:17:05.620Z,168.75
2018-03-01T15:18:05.611Z,163.13
2018-03-01T15:19:58.575Z,157.50
2018-03-01T15:20:58.524Z,157.50
2018-03-01T15:22:51.490Z,140.63
2018-03-01T15:23:51.478Z,135.00
2018-03-01T15:25:45.261Z,129.38
2018-03-01T15:26:45.196Z,129.38
2018-03-01T15:28:38.016Z,123.75
2018-03-01T15:29:37.983Z,112.50
2018-03-01T15:31:30.956Z,84.38
2018-03-01T15:32:30.919Z,78.75
2018-03-01T15:34:23.870Z,78.75
2018-03-01T15:35:23.810Z,84.38
2018-03-01T15:37:16.741Z,73.13
2018-03-01T15:38:17.626Z,73.13
2018-03-01T15:40:10.772Z,73.13
2018-03-01T15:41:10.524Z,73.13
2018-03-01T15:43:03.349Z,67.50
2018-03-01T15:44:03.291Z,67.50
2018-03-01T15:45:56.300Z,67.50
2018-03-01T15:46:56.222Z,67.50
2018-03-01T15:48:49.156Z,61.88
2018-03-01T15:49:49.121Z,61.88
2018-03-01T15:51:42.024Z,56.25
2018-03-01T15:52:41.965Z,56.25
2018-03-01T15:54:34.916Z,56.25
2018-03-01T15:55:34.891Z,50.63
2018-03-01T15:57:27.845Z,50.63
2018-03-01T15:58:27.885Z,50.63
2018-03-01T16:00:20.920Z,50.63
2018-03-01T16:01:20.819Z,45.00
2018-03-01T16:03:13.795Z,45.00
2018-03-01T16:04:13.756Z,45.00
2018-03-01T16:06:06.712Z,45.00
2018-03-01T16:07:06.654Z,45.00
2018-03-01T16:08:59.445Z,45.00
2018-03-01T16:09:59.394Z,39.38
2018-03-01T16:11:52.242Z,39.38
2018-03-01T16:12:52.180Z,39.38
2018-03-01T16:14:45.169Z,39.38
2018-03-01T16:15:45.127Z,39.38
2018-03-01T16:17:38.175Z,45.00
2018-03-01T16:18:38.142Z,39.38
2018-03-01T16:20:31.222Z,39.38
2018-03-01T16:21:31.166Z,39.38
2018-03-01T16:23:24.155Z,33.75
2018-03-01T16:24:24.113Z,33.75
2018-03-01T16:26:16.955Z,33.75
2018-03-01T16:27:16.891Z,33.75
2018-03-01T16:29:09.811Z,28.13
2018-03-01T16:30:09.757Z,28.13
2018-03-01T16:32:02.565Z,28.13
2018-03-01T16:33:02.515Z,28.13
2018-03-01T16:34:55.432Z,28.13
2018-03-01T16:35:55.302Z,22.50
2018-03-01T16:37:48.248Z,22.50
2018-03-01T16:38:48.192Z,22.50
2018-03-01T16:40:41.193Z,22.50
2018-03-01T16:41:41.142Z,16.88
2018-03-01T16:43:34.392Z,16.88
2018-03-01T16:44:34.230Z,16.88
2018-03-01T16:46:27.182Z,16.88
2018-03-01T16:47:27.123Z,16.88
2018-03-01T16:49:20.149Z,11.25
2018-03-01T16:50:20.011Z,11.25
2018-03-01T16:52:13.142Z,11.25
2018-03-01T16:53:13.130Z,11.25
2018-03-01T16:55:06.422Z,11.25
2018-03-01T16:56:06.352Z,5.63
2018-03-01T16:57:59.467Z,5.63
2018-03-01T16:58:59.371Z,5.63
2018-03-01T17:00:52.196Z,5.63
2018-03-01T17:01:52.117Z,5.63
2018-03-01T17:03:45.090Z,5.63
2018-03-01T17:04:45.043Z,0.00
2018-03-01T17:06:37.829Z,0.00
2018-03-01T17:07:37.780Z,0.00
2018-03-01T17:09:30.932Z,0.00
2018-03-01T17:10:30.857Z,0.00
2018-03-01T17:12:23.940Z,0.00
2018-03-01T17:13:23.807Z,0.00
2018-03-01T17:15:16.768Z,0.00
2018-03-01T17:16:16.711Z,0.00
2018-03-01T17:18:09.533Z,0.00
2018-03-01T17:19:09.504Z,0.00
2018-03-01T17:21:02.439Z,0.00
2018-03-01T17:22:02.396Z,0.00
2018-03-01T17:23:55.322Z,0.00
2018-03-01T17:24:55.296Z,0.00
2018-03-01T17:26:48.129Z,0.00
2018-03-01T17:27:48.048Z,0.00
2018-03-01T17:29:41.277Z,0.00
2018-03-01T17:30:41.112Z,0.00
2018-03-01T17:32:34.076Z,0.00
2018-03-01T17:33:34.005Z,0.00
2018-03-01T17:35:26.986Z,0.00
2018-03-01T17:36:26.916Z,0.00
2018-03-01T17:38:20.030Z,0.00
2018-03-01T17:39:19.991Z,0.00
2018-03-01T17:41:12.970Z,0.00
2018-03-01T17:42:12.863Z,0.00
2018-03-01T17:44:05.815Z,0.00
2018-03-01T17:45:05.759Z,0.00
2018-03-01T17:46:58.590Z,0.00
2018-03-01T17:47:58.523Z,0.00
2018-03-01T17:49:51.352Z,0.00
2018-03-01T17:50:51.310Z,0.00
2018-03-01T17:52:44.308Z,0.00
2018-03-01T17:53:44.201Z,0.00
2018-03-01T17:55:37.129Z,0.00
2018-03-01T17:56:37.100Z,0.00
2018-03-01T17:58:30.067Z,0.00
2018-03-01T17:59:30.000Z,0.00
2018-03-01T18:01:22.803Z,0.00
2018-03-01T18:02:22.749Z,0.00
2018-03-01T18:04:15.706Z,0.00
2018-03-01T18:05:15.495Z,0.00
2018-03-01T18:07:08.428Z,0.00
2018-03-01T18:08:08.405Z,0.00
2018-03-01T18:10:01.336Z,0.00
2018-03-01T18:11:01.287Z,0.00
2018-03-01T18:12:54.220Z,0.00
2018-03-01T18:13:54.162Z,0.00
2018-03-01T18:15:47.203Z,0.00
2018-03-01T18:16:47.167Z,0.00
2018-03-01T18:18:39.990Z,0.00
2018-03-01T18:19:39.923Z,0.00
2018-03-01T18:21:32.870Z,0.00
2018-03-01T18:22:32.842Z,0.00
2018-03-01T18:24:26.034Z,0.00
2018-03-01T18:25:25.890Z,0.00
2018-03-01T18:27:18.656Z,0.00
2018-03-01T18:28:18.612Z,0.00
2018-03-01T18:30:11.568Z,0.00
2018-03-01T18:31:11.510Z,0.00
2018-03-01T18:33:04.492Z,0.00
2018-03-01T18:34:04.433Z,0.00
2018-03-01T18:35:57.364Z,0.00
2018-03-01T18:36:57.300Z,0.00
2018-03-01T18:38:50.283Z,0.00
2018-03-01T18:39:50.188Z,0.00
2018-03-01T18:41:43.147Z,0.00
2018-03-01T18:42:43.223Z,0.00
2018-03-01T18:44:36.068Z,0.00
2018-03-01T18:45:35.993Z,0.00
2018-03-01T18:47:28.797Z,0.00
2018-03-01T18:48:28.731Z,0.00
2018-03-01T18:50:21.578Z,0.00
2018-03-01T18:51:21.517Z,0.00
2018-03-01T18:53:14.477Z,0.00
2018-03-01T18:54:14.392Z,0.00
2018-03-01T18:56:07.358Z,0.00
2018-03-01T18:57:07.322Z,0.00
2018-03-01T18:59:00.547Z,0.00
2018-03-01T19:00:00.350Z,0.00
2018-03-01T19:01:53.497Z,0.00
2018-03-01T19:02:53.436Z,0.00
2018-03-01T19:04:46.385Z,0.00